sensor_id;sensor_type;location;lat;lon;timestamp;P1;durP1;ratioP1;P2;durP2;ratioP2
35715;SDS011;21840;44.920;8.616;2023-07-24T00:00:42;16.25;;;8.18;;
35715;SDS011;21840;44.920;8.616;2023-07-24T00:03:07;16.67;;;8.98;;
35715;SDS011;21840;44.920;8.616;2023-07-24T00:05:33;19.08;;;9.07;;
35715;SDS011;21840;44.920;8.616;2023-07-24T00:07:58;18.13;;;8.95;;
35715;SDS011;21840;44.920;8.616;2023-07-24T00:10:23;20.95;;;9.25;;
35715;SDS011;21840;44.920;8.616;2023-07-24T00:12:49;22.00;;;9.57;;
35715;SDS011;21840;44.920;8.616;2023-07-24T00:15:15;15.05;;;7.90;;
35715;SDS011;21840;44.920;8.616;2023-07-24T00:17:41;21.77;;;9.07;;
35715;SDS011;21840;44.920;8.616;2023-07-24T00:20:06;19.55;;;9.07;;
35715;SDS011;21840;44.920;8.616;2023-07-24T00:22:32;16.58;;;9.10;;
35715;SDS011;21840;44.920;8.616;2023-07-24T00:24:57;19.02;;;8.90;;
35715;SDS011;21840;44.920;8.616;2023-07-24T00:27:23;15.48;;;8.05;;
35715;SDS011;21840;44.920;8.616;2023-07-24T00:29:48;16.50;;;8.48;;
35715;SDS011;21840;44.920;8.616;2023-07-24T00:32:14;15.82;;;8.40;;
35715;SDS011;21840;44.920;8.616;2023-07-24T00:34:39;16.77;;;8.27;;
35715;SDS011;21840;44.920;8.616;2023-07-24T00:37:05;16.90;;;8.55;;
35715;SDS011;21840;44.920;8.616;2023-07-24T00:39:30;18.05;;;8.77;;
35715;SDS011;21840;44.920;8.616;2023-07-24T00:41:56;17.58;;;9.85;;
35715;SDS011;21840;44.920;8.616;2023-07-24T00:44:21;15.30;;;8.73;;
35715;SDS011;21840;44.920;8.616;2023-07-24T00:46:47;17.50;;;9.15;;
35715;SDS011;21840;44.920;8.616;2023-07-24T00:49:13;14.23;;;8.20;;
35715;SDS011;21840;44.920;8.616;2023-07-24T00:51:38;15.05;;;8.20;;
35715;SDS011;21840;44.920;8.616;2023-07-24T00:54:04;18.85;;;8.55;;
35715;SDS011;21840;44.920;8.616;2023-07-24T00:56:31;19.08;;;9.00;;
35715;SDS011;21840;44.920;8.616;2023-07-24T00:58:57;21.10;;;9.10;;
35715;SDS011;21840;44.920;8.616;2023-07-24T01:01:24;16.13;;;8.13;;
35715;SDS011;21840;44.920;8.616;2023-07-24T01:03:50;17.70;;;8.23;;
35715;SDS011;21840;44.920;8.616;2023-07-24T01:06:17;16.48;;;9.18;;
35715;SDS011;21840;44.920;8.616;2023-07-24T01:08:42;15.25;;;8.32;;
35715;SDS011;21840;44.920;8.616;2023-07-24T01:11:30;15.82;;;8.27;;
35715;SDS011;21840;44.920;8.616;2023-07-24T01:14:15;15.15;;;8.23;;
35715;SDS011;21840;44.920;8.616;2023-07-24T01:16:55;18.90;;;9.52;;
35715;SDS011;21840;44.920;8.616;2023-07-24T01:19:41;15.15;;;8.35;;
35715;SDS011;21840;44.920;8.616;2023-07-24T01:27:31;17.08;;;8.15;;
35715;SDS011;21840;44.920;8.616;2023-07-24T01:29:57;18.95;;;8.10;;
35715;SDS011;21840;44.920;8.616;2023-07-24T01:32:22;17.67;;;8.55;;
35715;SDS011;21840;44.920;8.616;2023-07-24T01:34:48;13.95;;;7.53;;
35715;SDS011;21840;44.920;8.616;2023-07-24T01:37:14;14.50;;;8.27;;
35715;SDS011;21840;44.920;8.616;2023-07-24T01:39:41;17.25;;;8.10;;
35715;SDS011;21840;44.920;8.616;2023-07-24T01:42:09;14.18;;;7.43;;
35715;SDS011;21840;44.920;8.616;2023-07-24T01:44:35;14.10;;;7.70;;
35715;SDS011;21840;44.920;8.616;2023-07-24T01:47:01;14.32;;;7.80;;
35715;SDS011;21840;44.920;8.616;2023-07-24T01:49:27;20.10;;;8.25;;
35715;SDS011;21840;44.920;8.616;2023-07-24T01:51:53;15.57;;;8.02;;
35715;SDS011;21840;44.920;8.616;2023-07-24T01:54:18;15.63;;;8.15;;
35715;SDS011;21840;44.920;8.616;2023-07-24T01:56:44;17.38;;;8.82;;
35715;SDS011;21840;44.920;8.616;2023-07-24T01:59:09;18.25;;;8.95;;
35715;SDS011;21840;44.920;8.616;2023-07-24T02:01:35;16.33;;;8.77;;
35715;SDS011;21840;44.920;8.616;2023-07-24T02:04:01;15.55;;;8.38;;
35715;SDS011;21840;44.920;8.616;2023-07-24T02:06:27;16.73;;;8.88;;
35715;SDS011;21840;44.920;8.616;2023-07-24T02:08:52;16.40;;;8.45;;
35715;SDS011;21840;44.920;8.616;2023-07-24T02:11:18;17.95;;;9.48;;
35715;SDS011;21840;44.920;8.616;2023-07-24T02:13:44;20.38;;;8.35;;
35715;SDS011;21840;44.920;8.616;2023-07-24T02:16:10;17.38;;;9.23;;
35715;SDS011;21840;44.920;8.616;2023-07-24T02:18:37;21.88;;;10.75;;
35715;SDS011;21840;44.920;8.616;2023-07-24T02:21:04;18.83;;;9.00;;
35715;SDS011;21840;44.920;8.616;2023-07-24T02:23:29;18.55;;;9.35;;
35715;SDS011;21840;44.920;8.616;2023-07-24T02:25:54;16.20;;;8.80;;
35715;SDS011;21840;44.920;8.616;2023-07-24T02:28:20;16.48;;;8.93;;
35715;SDS011;21840;44.920;8.616;2023-07-24T02:30:46;17.05;;;8.43;;
35715;SDS011;21840;44.920;8.616;2023-07-24T02:33:12;14.80;;;7.95;;
35715;SDS011;21840;44.920;8.616;2023-07-24T02:35:41;16.98;;;8.55;;
35715;SDS011;21840;44.920;8.616;2023-07-24T02:38:08;18.73;;;9.00;;
35715;SDS011;21840;44.920;8.616;2023-07-24T02:40:33;16.48;;;7.80;;
35715;SDS011;21840;44.920;8.616;2023-07-24T02:43:00;17.02;;;8.25;;
35715;SDS011;21840;44.920;8.616;2023-07-24T02:45:26;17.30;;;8.75;;
35715;SDS011;21840;44.920;8.616;2023-07-24T02:47:51;15.50;;;8.68;;
35715;SDS011;21840;44.920;8.616;2023-07-24T02:50:17;17.88;;;8.57;;
35715;SDS011;21840;44.920;8.616;2023-07-24T02:52:45;14.20;;;8.25;;
35715;SDS011;21840;44.920;8.616;2023-07-24T02:55:10;14.73;;;7.95;;
35715;SDS011;21840;44.920;8.616;2023-07-24T02:57:36;21.73;;;9.73;;
35715;SDS011;21840;44.920;8.616;2023-07-24T03:00:01;20.48;;;9.68;;
35715;SDS011;21840;44.920;8.616;2023-07-24T03:02:28;15.05;;;8.55;;
35715;SDS011;21840;44.920;8.616;2023-07-24T03:04:53;17.85;;;8.40;;
35715;SDS011;21840;44.920;8.616;2023-07-24T03:07:18;18.23;;;9.48;;
35715;SDS011;21840;44.920;8.616;2023-07-24T03:09:46;15.52;;;9.02;;
35715;SDS011;21840;44.920;8.616;2023-07-24T03:12:11;19.23;;;9.90;;
35715;SDS011;21840;44.920;8.616;2023-07-24T03:14:37;22.50;;;10.85;;
35715;SDS011;21840;44.920;8.616;2023-07-24T03:17:02;23.92;;;12.40;;
35715;SDS011;21840;44.920;8.616;2023-07-24T03:19:28;23.42;;;12.23;;
35715;SDS011;21840;44.920;8.616;2023-07-24T03:21:53;21.60;;;11.57;;
35715;SDS011;21840;44.920;8.616;2023-07-24T03:24:19;26.23;;;11.73;;
35715;SDS011;21840;44.920;8.616;2023-07-24T03:26:44;25.45;;;11.73;;
35715;SDS011;21840;44.920;8.616;2023-07-24T03:29:10;21.80;;;11.38;;
35715;SDS011;21840;44.920;8.616;2023-07-24T03:31:35;16.85;;;10.25;;
35715;SDS011;21840;44.920;8.616;2023-07-24T03:34:00;22.55;;;11.73;;
35715;SDS011;21840;44.920;8.616;2023-07-24T03:36:26;18.48;;;11.00;;
35715;SDS011;21840;44.920;8.616;2023-07-24T03:38:52;18.95;;;10.57;;
35715;SDS011;21840;44.920;8.616;2023-07-24T03:41:18;20.52;;;10.20;;
35715;SDS011;21840;44.920;8.616;2023-07-24T03:43:43;25.50;;;10.77;;
35715;SDS011;21840;44.920;8.616;2023-07-24T03:46:09;17.98;;;9.60;;
35715;SDS011;21840;44.920;8.616;2023-07-24T03:48:34;20.50;;;10.68;;
35715;SDS011;21840;44.920;8.616;2023-07-24T03:51:00;17.70;;;10.23;;
35715;SDS011;21840;44.920;8.616;2023-07-24T03:53:29;20.42;;;10.75;;
35715;SDS011;21840;44.920;8.616;2023-07-24T03:55:54;24.30;;;11.18;;
35715;SDS011;21840;44.920;8.616;2023-07-24T03:58:20;26.30;;;11.85;;
35715;SDS011;21840;44.920;8.616;2023-07-24T04:00:45;18.92;;;11.60;;
35715;SDS011;21840;44.920;8.616;2023-07-24T04:03:11;22.15;;;12.13;;
35715;SDS011;21840;44.920;8.616;2023-07-24T04:05:37;24.65;;;12.55;;
35715;SDS011;21840;44.920;8.616;2023-07-24T04:08:03;26.00;;;12.18;;
35715;SDS011;21840;44.920;8.616;2023-07-24T04:10:28;24.50;;;12.23;;
35715;SDS011;21840;44.920;8.616;2023-07-24T04:12:56;23.98;;;12.05;;
35715;SDS011;21840;44.920;8.616;2023-07-24T04:15:22;22.95;;;11.80;;
35715;SDS011;21840;44.920;8.616;2023-07-24T04:17:48;28.92;;;11.77;;
35715;SDS011;21840;44.920;8.616;2023-07-24T04:20:13;20.20;;;10.50;;
35715;SDS011;21840;44.920;8.616;2023-07-24T04:22:39;24.83;;;11.18;;
35715;SDS011;21840;44.920;8.616;2023-07-24T04:25:05;18.45;;;11.07;;
35715;SDS011;21840;44.920;8.616;2023-07-24T04:27:30;24.48;;;10.60;;
35715;SDS011;21840;44.920;8.616;2023-07-24T04:29:56;18.98;;;10.25;;
35715;SDS011;21840;44.920;8.616;2023-07-24T04:32:21;19.35;;;10.82;;
35715;SDS011;21840;44.920;8.616;2023-07-24T04:34:47;22.38;;;11.00;;
35715;SDS011;21840;44.920;8.616;2023-07-24T04:37:12;20.02;;;10.70;;
35715;SDS011;21840;44.920;8.616;2023-07-24T04:39:40;19.95;;;11.25;;
35715;SDS011;21840;44.920;8.616;2023-07-24T04:42:06;23.20;;;11.52;;
35715;SDS011;21840;44.920;8.616;2023-07-24T04:44:32;23.67;;;11.10;;
35715;SDS011;21840;44.920;8.616;2023-07-24T04:46:57;24.35;;;11.00;;
35715;SDS011;21840;44.920;8.616;2023-07-24T04:49:23;25.05;;;11.05;;
35715;SDS011;21840;44.920;8.616;2023-07-24T04:51:49;20.38;;;10.73;;
35715;SDS011;21840;44.920;8.616;2023-07-24T04:54:16;21.48;;;10.10;;
35715;SDS011;21840;44.920;8.616;2023-07-24T04:56:42;19.88;;;10.30;;
35715;SDS011;21840;44.920;8.616;2023-07-24T04:59:07;21.67;;;11.10;;
35715;SDS011;21840;44.920;8.616;2023-07-24T05:01:33;23.58;;;11.10;;
35715;SDS011;21840;44.920;8.616;2023-07-24T05:03:58;20.70;;;10.68;;
35715;SDS011;21840;44.920;8.616;2023-07-24T05:06:24;29.05;;;10.43;;
35715;SDS011;21840;44.920;8.616;2023-07-24T05:08:52;20.23;;;10.15;;
35715;SDS011;21840;44.920;8.616;2023-07-24T05:11:18;25.70;;;11.35;;
35715;SDS011;21840;44.920;8.616;2023-07-24T05:13:44;19.67;;;11.10;;
35715;SDS011;21840;44.920;8.616;2023-07-24T05:16:09;23.13;;;10.70;;
35715;SDS011;21840;44.920;8.616;2023-07-24T05:18:34;17.25;;;9.77;;
35715;SDS011;21840;44.920;8.616;2023-07-24T05:21:00;19.65;;;9.88;;
35715;SDS011;21840;44.920;8.616;2023-07-24T05:23:25;23.77;;;10.90;;
35715;SDS011;21840;44.920;8.616;2023-07-24T05:26:00;22.05;;;9.98;;
35715;SDS011;21840;44.920;8.616;2023-07-24T05:28:27;20.40;;;9.93;;
35715;SDS011;21840;44.920;8.616;2023-07-24T05:30:53;22.73;;;9.35;;
35715;SDS011;21840;44.920;8.616;2023-07-24T05:33:19;19.10;;;9.90;;
35715;SDS011;21840;44.920;8.616;2023-07-24T05:35:45;18.38;;;9.63;;
35715;SDS011;21840;44.920;8.616;2023-07-24T05:38:10;20.10;;;10.18;;
35715;SDS011;21840;44.920;8.616;2023-07-24T05:40:36;21.38;;;9.95;;
35715;SDS011;21840;44.920;8.616;2023-07-24T05:43:01;19.13;;;10.18;;
35715;SDS011;21840;44.920;8.616;2023-07-24T05:45:27;20.30;;;10.30;;
35715;SDS011;21840;44.920;8.616;2023-07-24T05:47:53;20.98;;;10.13;;
35715;SDS011;21840;44.920;8.616;2023-07-24T05:50:21;21.00;;;10.52;;
35715;SDS011;21840;44.920;8.616;2023-07-24T05:52:47;18.63;;;9.98;;
35715;SDS011;21840;44.920;8.616;2023-07-24T05:55:12;20.35;;;10.10;;
35715;SDS011;21840;44.920;8.616;2023-07-24T05:57:37;26.25;;;10.27;;
35715;SDS011;21840;44.920;8.616;2023-07-24T06:00:03;17.40;;;9.15;;
35715;SDS011;21840;44.920;8.616;2023-07-24T06:02:36;21.35;;;9.75;;
35715;SDS011;21840;44.920;8.616;2023-07-24T06:05:02;24.42;;;9.35;;
35715;SDS011;21840;44.920;8.616;2023-07-24T06:07:27;21.27;;;9.25;;
35715;SDS011;21840;44.920;8.616;2023-07-24T06:09:53;16.13;;;8.52;;
35715;SDS011;21840;44.920;8.616;2023-07-24T06:12:18;17.05;;;8.95;;
35715;SDS011;21840;44.920;8.616;2023-07-24T06:14:44;21.65;;;9.75;;
35715;SDS011;21840;44.920;8.616;2023-07-24T06:17:09;21.38;;;9.63;;
35715;SDS011;21840;44.920;8.616;2023-07-24T06:19:34;16.42;;;9.10;;
35715;SDS011;21840;44.920;8.616;2023-07-24T06:22:00;19.83;;;8.18;;
35715;SDS011;21840;44.920;8.616;2023-07-24T06:24:25;15.70;;;7.63;;
35715;SDS011;21840;44.920;8.616;2023-07-24T06:26:51;17.00;;;8.55;;
35715;SDS011;21840;44.920;8.616;2023-07-24T06:29:16;16.52;;;8.45;;
35715;SDS011;21840;44.920;8.616;2023-07-24T06:31:42;17.33;;;7.88;;
35715;SDS011;21840;44.920;8.616;2023-07-24T06:34:07;15.75;;;8.73;;
35715;SDS011;21840;44.920;8.616;2023-07-24T06:36:32;14.43;;;7.18;;
35715;SDS011;21840;44.920;8.616;2023-07-24T06:38:58;18.48;;;8.45;;
35715;SDS011;21840;44.920;8.616;2023-07-24T06:41:24;20.45;;;8.10;;
35715;SDS011;21840;44.920;8.616;2023-07-24T06:43:50;14.70;;;8.07;;
35715;SDS011;21840;44.920;8.616;2023-07-24T06:46:16;12.88;;;7.40;;
35715;SDS011;21840;44.920;8.616;2023-07-24T06:48:42;17.20;;;7.97;;
35715;SDS011;21840;44.920;8.616;2023-07-24T06:51:07;19.02;;;8.73;;
35715;SDS011;21840;44.920;8.616;2023-07-24T06:53:33;12.27;;;7.93;;
35715;SDS011;21840;44.920;8.616;2023-07-24T06:55:58;17.30;;;8.63;;
35715;SDS011;21840;44.920;8.616;2023-07-24T06:58:24;15.70;;;8.18;;
35715;SDS011;21840;44.920;8.616;2023-07-24T07:00:49;15.82;;;8.05;;
35715;SDS011;21840;44.920;8.616;2023-07-24T07:03:14;13.48;;;8.13;;
35715;SDS011;21840;44.920;8.616;2023-07-24T07:05:43;21.52;;;8.48;;
35715;SDS011;21840;44.920;8.616;2023-07-24T07:08:08;12.30;;;7.80;;
35715;SDS011;21840;44.920;8.616;2023-07-24T07:10:33;19.08;;;8.93;;
35715;SDS011;21840;44.920;8.616;2023-07-24T07:12:59;20.02;;;8.82;;
35715;SDS011;21840;44.920;8.616;2023-07-24T07:15:24;17.20;;;8.82;;
35715;SDS011;21840;44.920;8.616;2023-07-24T07:17:50;14.10;;;8.40;;
35715;SDS011;21840;44.920;8.616;2023-07-24T07:20:16;15.35;;;9.13;;
35715;SDS011;21840;44.920;8.616;2023-07-24T07:22:41;16.13;;;8.82;;
35715;SDS011;21840;44.920;8.616;2023-07-24T07:25:07;20.00;;;8.80;;
35715;SDS011;21840;44.920;8.616;2023-07-24T07:27:32;22.67;;;9.32;;
35715;SDS011;21840;44.920;8.616;2023-07-24T07:29:58;18.45;;;9.23;;
35715;SDS011;21840;44.920;8.616;2023-07-24T07:32:23;18.35;;;9.20;;
35715;SDS011;21840;44.920;8.616;2023-07-24T07:34:49;20.48;;;9.27;;
35715;SDS011;21840;44.920;8.616;2023-07-24T07:37:15;18.08;;;8.98;;
35715;SDS011;21840;44.920;8.616;2023-07-24T07:39:40;29.42;;;10.23;;
35715;SDS011;21840;44.920;8.616;2023-07-24T07:42:06;25.17;;;9.73;;
35715;SDS011;21840;44.920;8.616;2023-07-24T07:44:31;18.98;;;9.48;;
35715;SDS011;21840;44.920;8.616;2023-07-24T07:47:00;20.23;;;9.98;;
35715;SDS011;21840;44.920;8.616;2023-07-24T07:49:25;16.02;;;9.57;;
35715;SDS011;21840;44.920;8.616;2023-07-24T07:51:50;20.60;;;10.13;;
35715;SDS011;21840;44.920;8.616;2023-07-24T07:54:16;21.90;;;10.20;;
35715;SDS011;21840;44.920;8.616;2023-07-24T07:56:41;19.63;;;10.25;;
35715;SDS011;21840;44.920;8.616;2023-07-24T07:59:07;21.70;;;9.55;;
35715;SDS011;21840;44.920;8.616;2023-07-24T08:01:33;24.48;;;9.80;;
35715;SDS011;21840;44.920;8.616;2023-07-24T08:03:58;20.48;;;10.52;;
35715;SDS011;21840;44.920;8.616;2023-07-24T08:06:24;19.23;;;9.88;;
35715;SDS011;21840;44.920;8.616;2023-07-24T08:08:49;21.75;;;10.45;;
35715;SDS011;21840;44.920;8.616;2023-07-24T08:11:15;15.68;;;9.38;;
35715;SDS011;21840;44.920;8.616;2023-07-24T08:13:41;19.75;;;10.38;;
35715;SDS011;21840;44.920;8.616;2023-07-24T08:16:16;19.95;;;9.93;;
35715;SDS011;21840;44.920;8.616;2023-07-24T08:18:47;18.85;;;10.20;;
35715;SDS011;21840;44.920;8.616;2023-07-24T08:21:13;21.55;;;11.05;;
35715;SDS011;21840;44.920;8.616;2023-07-24T08:23:42;17.52;;;9.63;;
35715;SDS011;21840;44.920;8.616;2023-07-24T08:26:10;16.70;;;9.93;;
35715;SDS011;21840;44.920;8.616;2023-07-24T08:28:36;14.73;;;9.15;;
35715;SDS011;21840;44.920;8.616;2023-07-24T08:31:02;18.38;;;9.82;;
35715;SDS011;21840;44.920;8.616;2023-07-24T08:33:27;22.38;;;10.38;;
35715;SDS011;21840;44.920;8.616;2023-07-24T08:35:58;20.48;;;9.23;;
35715;SDS011;21840;44.920;8.616;2023-07-24T08:38:27;20.05;;;9.70;;
35715;SDS011;21840;44.920;8.616;2023-07-24T08:40:59;22.23;;;9.10;;
35715;SDS011;21840;44.920;8.616;2023-07-24T08:43:26;16.50;;;8.57;;
35715;SDS011;21840;44.920;8.616;2023-07-24T08:45:53;17.60;;;9.00;;
35715;SDS011;21840;44.920;8.616;2023-07-24T08:48:18;17.13;;;9.43;;
35715;SDS011;21840;44.920;8.616;2023-07-24T08:50:45;19.95;;;9.27;;
35715;SDS011;21840;44.920;8.616;2023-07-24T08:53:12;18.20;;;8.93;;
35715;SDS011;21840;44.920;8.616;2023-07-24T08:55:39;22.70;;;9.15;;
35715;SDS011;21840;44.920;8.616;2023-07-24T08:58:04;18.08;;;9.52;;
35715;SDS011;21840;44.920;8.616;2023-07-24T09:00:32;18.20;;;9.35;;
35715;SDS011;21840;44.920;8.616;2023-07-24T09:02:57;20.38;;;9.68;;
35715;SDS011;21840;44.920;8.616;2023-07-24T09:05:23;16.25;;;8.93;;
35715;SDS011;21840;44.920;8.616;2023-07-24T09:07:48;18.88;;;9.70;;
35715;SDS011;21840;44.920;8.616;2023-07-24T09:10:14;19.13;;;9.85;;
35715;SDS011;21840;44.920;8.616;2023-07-24T09:12:41;20.15;;;11.45;;
35715;SDS011;21840;44.920;8.616;2023-07-24T09:15:07;20.48;;;11.02;;
35715;SDS011;21840;44.920;8.616;2023-07-24T09:17:33;17.85;;;10.15;;
35715;SDS011;21840;44.920;8.616;2023-07-24T09:19:59;23.13;;;11.60;;
35715;SDS011;21840;44.920;8.616;2023-07-24T09:22:25;19.65;;;11.48;;
35715;SDS011;21840;44.920;8.616;2023-07-24T09:24:53;27.35;;;12.93;;
35715;SDS011;21840;44.920;8.616;2023-07-24T09:27:20;25.77;;;13.48;;
35715;SDS011;21840;44.920;8.616;2023-07-24T09:29:46;28.25;;;14.35;;
35715;SDS011;21840;44.920;8.616;2023-07-24T09:32:51;26.88;;;16.38;;
35715;SDS011;21840;44.920;8.616;2023-07-24T09:37:32;35.63;;;18.27;;
35715;SDS011;21840;44.920;8.616;2023-07-24T09:39:58;32.22;;;17.70;;
35715;SDS011;21840;44.920;8.616;2023-07-24T09:42:28;31.70;;;17.80;;
35715;SDS011;21840;44.920;8.616;2023-07-24T09:44:54;32.90;;;17.65;;
35715;SDS011;21840;44.920;8.616;2023-07-24T09:47:19;35.55;;;19.30;;
35715;SDS011;21840;44.920;8.616;2023-07-24T09:49:45;35.30;;;18.98;;
35715;SDS011;21840;44.920;8.616;2023-07-24T09:52:11;35.65;;;18.13;;
35715;SDS011;21840;44.920;8.616;2023-07-24T09:54:42;32.58;;;18.00;;
35715;SDS011;21840;44.920;8.616;2023-07-24T09:57:22;32.70;;;18.60;;
35715;SDS011;21840;44.920;8.616;2023-07-24T09:59:51;29.05;;;17.15;;
35715;SDS011;21840;44.920;8.616;2023-07-24T10:02:18;30.88;;;18.23;;
35715;SDS011;21840;44.920;8.616;2023-07-24T10:04:44;35.35;;;19.33;;
35715;SDS011;21840;44.920;8.616;2023-07-24T10:07:10;38.42;;;20.25;;
35715;SDS011;21840;44.920;8.616;2023-07-24T10:09:36;35.85;;;19.85;;
35715;SDS011;21840;44.920;8.616;2023-07-24T10:12:03;33.13;;;20.40;;
35715;SDS011;21840;44.920;8.616;2023-07-24T10:14:29;30.52;;;18.13;;
35715;SDS011;21840;44.920;8.616;2023-07-24T10:16:56;30.75;;;18.70;;
35715;SDS011;21840;44.920;8.616;2023-07-24T10:19:22;45.83;;;19.17;;
35715;SDS011;21840;44.920;8.616;2023-07-24T10:21:47;34.53;;;18.45;;
35715;SDS011;21840;44.920;8.616;2023-07-24T10:24:16;34.28;;;20.08;;
35715;SDS011;21840;44.920;8.616;2023-07-24T10:26:42;32.08;;;19.40;;
35715;SDS011;21840;44.920;8.616;2023-07-24T10:29:11;33.33;;;18.30;;
35715;SDS011;21840;44.920;8.616;2023-07-24T10:31:38;29.88;;;18.38;;
35715;SDS011;21840;44.920;8.616;2023-07-24T10:34:06;29.73;;;17.30;;
35715;SDS011;21840;44.920;8.616;2023-07-24T10:36:33;29.95;;;17.60;;
35715;SDS011;21840;44.920;8.616;2023-07-24T10:39:00;31.92;;;18.00;;
35715;SDS011;21840;44.920;8.616;2023-07-24T10:41:36;30.17;;;20.10;;
35715;SDS011;21840;44.920;8.616;2023-07-24T10:44:02;33.80;;;20.02;;
35715;SDS011;21840;44.920;8.616;2023-07-24T10:46:38;41.08;;;19.13;;
35715;SDS011;21840;44.920;8.616;2023-07-24T10:49:08;35.80;;;20.75;;
35715;SDS011;21840;44.920;8.616;2023-07-24T10:51:33;32.95;;;19.15;;
35715;SDS011;21840;44.920;8.616;2023-07-24T10:54:02;39.70;;;19.95;;
35715;SDS011;21840;44.920;8.616;2023-07-24T10:56:31;32.22;;;20.70;;
35715;SDS011;21840;44.920;8.616;2023-07-24T10:59:01;38.25;;;22.33;;
35715;SDS011;21840;44.920;8.616;2023-07-24T11:01:28;40.85;;;23.10;;
35715;SDS011;21840;44.920;8.616;2023-07-24T11:03:54;38.58;;;22.25;;
35715;SDS011;21840;44.920;8.616;2023-07-24T11:06:23;38.60;;;21.30;;
35715;SDS011;21840;44.920;8.616;2023-07-24T11:08:52;35.78;;;21.17;;
35715;SDS011;21840;44.920;8.616;2023-07-24T11:11:18;36.38;;;21.15;;
35715;SDS011;21840;44.920;8.616;2023-07-24T11:13:44;35.65;;;21.92;;
35715;SDS011;21840;44.920;8.616;2023-07-24T11:16:09;36.42;;;21.33;;
35715;SDS011;21840;44.920;8.616;2023-07-24T11:18:48;34.17;;;21.85;;
35715;SDS011;21840;44.920;8.616;2023-07-24T11:21:14;37.50;;;23.58;;
35715;SDS011;21840;44.920;8.616;2023-07-24T11:23:59;38.85;;;22.02;;
35715;SDS011;21840;44.920;8.616;2023-07-24T11:26:25;34.50;;;22.85;;
35715;SDS011;21840;44.920;8.616;2023-07-24T11:28:52;38.85;;;19.55;;
35715;SDS011;21840;44.920;8.616;2023-07-24T11:31:18;38.13;;;21.23;;
35715;SDS011;21840;44.920;8.616;2023-07-24T11:33:47;38.38;;;24.13;;
35715;SDS011;21840;44.920;8.616;2023-07-24T11:36:13;42.15;;;21.63;;
35715;SDS011;21840;44.920;8.616;2023-07-24T11:38:40;39.45;;;21.48;;
35715;SDS011;21840;44.920;8.616;2023-07-24T11:41:05;37.00;;;21.58;;
35715;SDS011;21840;44.920;8.616;2023-07-24T11:43:33;33.35;;;19.10;;
35715;SDS011;21840;44.920;8.616;2023-07-24T11:45:58;37.40;;;23.48;;
35715;SDS011;21840;44.920;8.616;2023-07-24T11:48:24;38.05;;;23.25;;
35715;SDS011;21840;44.920;8.616;2023-07-24T11:50:52;28.35;;;19.38;;
35715;SDS011;21840;44.920;8.616;2023-07-24T11:53:26;36.80;;;19.77;;
35715;SDS011;21840;44.920;8.616;2023-07-24T11:55:59;30.70;;;19.02;;
35715;SDS011;21840;44.920;8.616;2023-07-24T11:58:26;29.58;;;18.05;;
35715;SDS011;21840;44.920;8.616;2023-07-24T12:00:52;32.38;;;19.40;;
35715;SDS011;21840;44.920;8.616;2023-07-24T12:03:21;35.13;;;22.50;;
35715;SDS011;21840;44.920;8.616;2023-07-24T12:05:47;37.10;;;19.98;;
35715;SDS011;21840;44.920;8.616;2023-07-24T12:08:13;29.98;;;17.60;;
35715;SDS011;21840;44.920;8.616;2023-07-24T12:10:42;30.08;;;16.65;;
35715;SDS011;21840;44.920;8.616;2023-07-24T12:13:08;27.30;;;16.25;;
35715;SDS011;21840;44.920;8.616;2023-07-24T12:15:34;30.65;;;18.83;;
35715;SDS011;21840;44.920;8.616;2023-07-24T12:18:00;31.75;;;19.17;;
35715;SDS011;21840;44.920;8.616;2023-07-24T12:20:26;28.90;;;18.15;;
35715;SDS011;21840;44.920;8.616;2023-07-24T12:22:52;31.77;;;18.67;;
35715;SDS011;21840;44.920;8.616;2023-07-24T12:25:19;29.30;;;18.80;;
35715;SDS011;21840;44.920;8.616;2023-07-24T12:27:48;25.38;;;16.83;;
35715;SDS011;21840;44.920;8.616;2023-07-24T12:30:13;29.92;;;17.73;;
35715;SDS011;21840;44.920;8.616;2023-07-24T12:32:39;28.92;;;17.30;;
35715;SDS011;21840;44.920;8.616;2023-07-24T12:35:04;30.70;;;17.17;;
35715;SDS011;21840;44.920;8.616;2023-07-24T12:37:30;31.60;;;18.27;;
35715;SDS011;21840;44.920;8.616;2023-07-24T12:39:56;28.25;;;17.27;;
35715;SDS011;21840;44.920;8.616;2023-07-24T12:42:22;35.90;;;19.08;;
35715;SDS011;21840;44.920;8.616;2023-07-24T12:44:48;33.92;;;21.08;;
35715;SDS011;21840;44.920;8.616;2023-07-24T12:47:14;30.92;;;20.02;;
35715;SDS011;21840;44.920;8.616;2023-07-24T12:49:40;32.33;;;20.00;;
35715;SDS011;21840;44.920;8.616;2023-07-24T12:52:05;29.67;;;19.50;;
35715;SDS011;21840;44.920;8.616;2023-07-24T12:54:31;33.85;;;21.38;;
35715;SDS011;21840;44.920;8.616;2023-07-24T12:56:57;40.28;;;24.00;;
35715;SDS011;21840;44.920;8.616;2023-07-24T12:59:22;34.42;;;20.95;;
35715;SDS011;21840;44.920;8.616;2023-07-24T13:01:51;32.20;;;20.88;;
35715;SDS011;21840;44.920;8.616;2023-07-24T13:04:16;34.05;;;21.45;;
35715;SDS011;21840;44.920;8.616;2023-07-24T13:06:41;32.83;;;22.27;;
35715;SDS011;21840;44.920;8.616;2023-07-24T13:09:07;36.47;;;22.10;;
35715;SDS011;21840;44.920;8.616;2023-07-24T13:11:32;32.17;;;20.38;;
35715;SDS011;21840;44.920;8.616;2023-07-24T13:13:58;42.28;;;22.27;;
35715;SDS011;21840;44.920;8.616;2023-07-24T13:16:23;29.85;;;17.83;;
35715;SDS011;21840;44.920;8.616;2023-07-24T13:19:01;30.23;;;16.90;;
35715;SDS011;21840;44.920;8.616;2023-07-24T13:21:27;25.33;;;15.23;;
35715;SDS011;21840;44.920;8.616;2023-07-24T13:23:52;26.35;;;14.57;;
35715;SDS011;21840;44.920;8.616;2023-07-24T13:26:17;25.27;;;15.43;;
35715;SDS011;21840;44.920;8.616;2023-07-24T13:28:43;21.65;;;14.07;;
35715;SDS011;21840;44.920;8.616;2023-07-24T13:33:44;21.27;;;12.07;;
35715;SDS011;21840;44.920;8.616;2023-07-24T13:36:10;23.80;;;13.82;;
35715;SDS011;21840;44.920;8.616;2023-07-24T13:38:36;20.00;;;13.10;;
35715;SDS011;21840;44.920;8.616;2023-07-24T13:41:02;22.77;;;12.48;;
35715;SDS011;21840;44.920;8.616;2023-07-24T13:43:29;23.75;;;14.55;;
35715;SDS011;21840;44.920;8.616;2023-07-24T13:45:55;21.90;;;13.48;;
35715;SDS011;21840;44.920;8.616;2023-07-24T13:48:21;22.50;;;14.75;;
35715;SDS011;21840;44.920;8.616;2023-07-24T13:50:47;21.15;;;12.52;;
35715;SDS011;21840;44.920;8.616;2023-07-24T13:53:12;20.85;;;13.00;;
35715;SDS011;21840;44.920;8.616;2023-07-24T13:55:38;19.55;;;12.60;;
35715;SDS011;21840;44.920;8.616;2023-07-24T13:58:03;25.40;;;13.52;;
35715;SDS011;21840;44.920;8.616;2023-07-24T14:00:29;24.95;;;12.73;;
35715;SDS011;21840;44.920;8.616;2023-07-24T14:02:55;19.42;;;11.88;;
35715;SDS011;21840;44.920;8.616;2023-07-24T14:05:20;22.15;;;11.90;;
35715;SDS011;21840;44.920;8.616;2023-07-24T14:07:48;22.40;;;12.38;;
35715;SDS011;21840;44.920;8.616;2023-07-24T14:10:14;22.70;;;11.50;;
35715;SDS011;21840;44.920;8.616;2023-07-24T14:12:39;17.70;;;11.82;;
35715;SDS011;21840;44.920;8.616;2023-07-24T14:15:05;16.23;;;10.48;;
35715;SDS011;21840;44.920;8.616;2023-07-24T14:17:34;17.55;;;9.77;;
35715;SDS011;21840;44.920;8.616;2023-07-24T14:20:03;16.77;;;8.93;;
35715;SDS011;21840;44.920;8.616;2023-07-24T14:22:28;16.70;;;9.52;;
35715;SDS011;21840;44.920;8.616;2023-07-24T14:24:54;11.48;;;8.13;;
35715;SDS011;21840;44.920;8.616;2023-07-24T14:27:19;16.50;;;7.95;;
35715;SDS011;21840;44.920;8.616;2023-07-24T14:29:44;11.60;;;6.82;;
35715;SDS011;21840;44.920;8.616;2023-07-24T14:32:10;14.75;;;6.70;;
35715;SDS011;21840;44.920;8.616;2023-07-24T14:34:35;19.75;;;6.50;;